< < Back
Terminal Aerodrome Forecast


Current Version              Previous Versions:   1  2  3  4  5  6  7  8  9  

Terminal Aerodrome Forecast

677
FTUS42 KGSP 281544 AAA
TAFAVL
TAF AMD
KAVL 281544Z 2816/2912 34004KT P6SM SCT035
     FM281700 16004KT P6SM VCTS BKN050CB
      TEMPO 2818/2822 4SM TSRA BKN040CB
     FM290300 00000KT P6SM BKN080
     FM290900 00000KT 5SM BR BKN007=

Latest METAR

184
SAUS70 KWBC 290400 RRH
MTRAVL
METAR KAVL 290354Z AUTO 00000KT 10SM CLR 19/17 A3029 RMK AO2 SLP229
T01890167


USA.gov is the U.S. government's official web portal to all federal, state and local government web resources and services.